메인 페이지
METAR-TAF:

METAR-TAF

공항 :

애들레이드 공항

애들레이드, 오스트레일리아

위도: 34-56S, 경도: 138-31E, 고도: 6m

현재 날씨관측

예보는 17분 전, 20:38시(UTC)에 발표되었습니다.
북북동9kt
온도 9°C
습도 87%
기압 1021 hPa
시정 10km 이상
고도 1000ft 상공 구름 많음
고도 4600ft 상공 구름 많음
고도 1000ft 상공 구름 보통
고도 4000ft 상공 구름 많음

METAR: YPAD 202038Z 03009KT 9999 BKN010 BKN046 09/07 Q1021 FM2100 03009KT 9999 SCT010 BKN040 INTER 2038/2300 6000 -SHRA BKN012

시각: 06:25 (20:55 UTC)

예보

예보는 3 시간 47분 전, 17:08시(UTC)에 발표되었습니다.
예보 대상 시간: 20일 18시부터 21일 24시까지 (UTC)
북북동6kt
시정 10km 이상
고도 1200ft 상공 구름 보통
고도 4000ft 상공 구름 많음
약한소나기
전환 중
20일 23시부터 21일 01시까지 (UTC)
북서10kt
시정 10km 이상
고도 2500ft 상공 구름 조금
고도 4000ft 상공 구름 보통
21일 0800시부터 (UTC)
여러 방향의 바람 5kt
시정 10km 이상
1500m 미만 상공 구름 및 적란운 없음
21일 1500시부터 (UTC)
북동9kt
시정: 6000m
고도 1200ft 상공 구름 많음
약한소나기

TAF: YPAD 201708Z 2018/2124 03006KT 9999 -SHRA SCT012 BKN040 BECMG 2023/2101 32010KT 9999 NSW FEW025 SCT040 FM210800 VRB05KT CAVOK FM211500 04009KT CAVOK INTER 2018/2023 6000 -SHRA BKN012

4,000개 이상의 공항 관측 자료 및 예보 (METAR 및 TAF 보고).

지도상에서 검색 가능한 기상관측소가 노란 점과 빨간 점으로 표시되어 있습니다.

기상관측소 명을 보려면 표시 위로 마우스를 이동하세요.

날씨 관측과 예보를 보려면 클릭하세요.

지도 변경 : 확대하려면 엑스 표시가 있는 녹색 버튼, 축소하려면 빼기 표시가 있는 녹색 버튼, 다음 페이지의 지도를 보려면 녹색 화살표를 클릭하세요.


METAR-TAF: